sensor_id;sensor_type;location;lat;lon;timestamp;P1;durP1;ratioP1;P2;durP2;ratioP2
47103;SDS011;32853;52.164;5.400;2023-05-10T00:00:27;28.50;;;13.50;;
47103;SDS011;32853;52.164;5.400;2023-05-10T00:05:21;34.00;;;13.27;;
47103;SDS011;32853;52.164;5.400;2023-05-10T00:07:47;30.20;;;14.20;;
47103;SDS011;32853;52.164;5.400;2023-05-10T00:10:13;27.75;;;12.32;;
47103;SDS011;32853;52.164;5.400;2023-05-10T00:12:38;26.38;;;12.38;;
47103;SDS011;32853;52.164;5.400;2023-05-10T00:15:03;27.20;;;12.05;;
47103;SDS011;32853;52.164;5.400;2023-05-10T00:17:30;30.27;;;13.52;;
47103;SDS011;32853;52.164;5.400;2023-05-10T00:19:56;27.40;;;13.27;;
47103;SDS011;32853;52.164;5.400;2023-05-10T00:22:21;26.85;;;12.65;;
47103;SDS011;32853;52.164;5.400;2023-05-10T00:24:46;29.60;;;13.20;;
47103;SDS011;32853;52.164;5.400;2023-05-10T00:27:12;27.45;;;13.70;;
47103;SDS011;32853;52.164;5.400;2023-05-10T00:29:37;28.58;;;12.45;;
47103;SDS011;32853;52.164;5.400;2023-05-10T00:32:02;28.48;;;13.38;;
47103;SDS011;32853;52.164;5.400;2023-05-10T00:34:28;31.98;;;13.43;;
47103;SDS011;32853;52.164;5.400;2023-05-10T00:36:55;34.20;;;15.50;;
47103;SDS011;32853;52.164;5.400;2023-05-10T00:39:21;34.47;;;15.05;;
47103;SDS011;32853;52.164;5.400;2023-05-10T00:41:46;28.33;;;14.82;;
47103;SDS011;32853;52.164;5.400;2023-05-10T00:44:11;42.00;;;19.17;;
47103;SDS011;32853;52.164;5.400;2023-05-10T00:46:37;37.85;;;17.10;;
47103;SDS011;32853;52.164;5.400;2023-05-10T00:49:02;38.28;;;17.52;;
47103;SDS011;32853;52.164;5.400;2023-05-10T00:51:28;43.38;;;19.20;;
47103;SDS011;32853;52.164;5.400;2023-05-10T00:56:29;43.40;;;18.30;;
47103;SDS011;32853;52.164;5.400;2023-05-10T00:59:00;42.72;;;19.40;;
47103;SDS011;32853;52.164;5.400;2023-05-10T01:01:26;45.60;;;19.42;;
47103;SDS011;32853;52.164;5.400;2023-05-10T01:06:56;49.47;;;19.25;;
47103;SDS011;32853;52.164;5.400;2023-05-10T01:09:22;55.90;;;20.40;;
47103;SDS011;32853;52.164;5.400;2023-05-10T01:11:48;51.15;;;19.08;;
47103;SDS011;32853;52.164;5.400;2023-05-10T01:17:08;52.70;;;19.65;;
47103;SDS011;32853;52.164;5.400;2023-05-10T01:19:40;59.50;;;22.67;;
47103;SDS011;32853;52.164;5.400;2023-05-10T01:34:09;51.70;;;20.20;;
47103;SDS011;32853;52.164;5.400;2023-05-10T01:36:51;59.65;;;22.00;;
47103;SDS011;32853;52.164;5.400;2023-05-10T01:39:24;64.78;;;21.95;;
47103;SDS011;32853;52.164;5.400;2023-05-10T01:42:12;57.03;;;21.65;;
47103;SDS011;32853;52.164;5.400;2023-05-10T01:50:02;47.75;;;17.95;;
47103;SDS011;32853;52.164;5.400;2023-05-10T01:52:38;53.05;;;21.67;;
47103;SDS011;32853;52.164;5.400;2023-05-10T01:55:08;54.13;;;20.65;;
47103;SDS011;32853;52.164;5.400;2023-05-10T01:57:54;62.15;;;22.52;;
47103;SDS011;32853;52.164;5.400;2023-05-10T02:00:29;63.05;;;22.45;;
47103;SDS011;32853;52.164;5.400;2023-05-10T02:02:56;60.25;;;21.52;;
47103;SDS011;32853;52.164;5.400;2023-05-10T02:05:22;64.05;;;22.65;;
47103;SDS011;32853;52.164;5.400;2023-05-10T02:10:18;66.43;;;22.58;;
47103;SDS011;32853;52.164;5.400;2023-05-10T02:12:45;58.75;;;22.45;;
47103;SDS011;32853;52.164;5.400;2023-05-10T02:15:15;59.38;;;21.33;;
47103;SDS011;32853;52.164;5.400;2023-05-10T02:17:46;66.25;;;22.38;;
47103;SDS011;32853;52.164;5.400;2023-05-10T02:20:11;58.63;;;20.77;;
47103;SDS011;32853;52.164;5.400;2023-05-10T02:22:38;61.45;;;21.75;;
47103;SDS011;32853;52.164;5.400;2023-05-10T02:25:05;57.28;;;21.10;;
47103;SDS011;32853;52.164;5.400;2023-05-10T02:27:33;62.22;;;21.40;;
47103;SDS011;32853;52.164;5.400;2023-05-10T02:29:59;56.85;;;20.63;;
47103;SDS011;32853;52.164;5.400;2023-05-10T02:35:13;56.67;;;22.25;;
47103;SDS011;32853;52.164;5.400;2023-05-10T02:37:40;54.38;;;22.35;;
47103;SDS011;32853;52.164;5.400;2023-05-10T02:40:06;59.80;;;22.52;;
47103;SDS011;32853;52.164;5.400;2023-05-10T02:42:35;58.28;;;23.42;;
47103;SDS011;32853;52.164;5.400;2023-05-10T02:47:39;59.05;;;21.65;;
47103;SDS011;32853;52.164;5.400;2023-05-10T02:52:51;63.25;;;20.70;;
47103;SDS011;32853;52.164;5.400;2023-05-10T02:55:19;64.85;;;21.83;;
47103;SDS011;32853;52.164;5.400;2023-05-10T02:57:51;62.22;;;23.95;;
47103;SDS011;32853;52.164;5.400;2023-05-10T03:00:19;59.33;;;23.58;;
47103;SDS011;32853;52.164;5.400;2023-05-10T03:02:51;62.42;;;22.67;;
47103;SDS011;32853;52.164;5.400;2023-05-10T03:05:18;58.73;;;22.37;;
47103;SDS011;32853;52.164;5.400;2023-05-10T03:07:44;70.07;;;22.27;;
47103;SDS011;32853;52.164;5.400;2023-05-10T03:10:10;65.82;;;21.98;;
47103;SDS011;32853;52.164;5.400;2023-05-10T03:15:37;65.93;;;20.67;;
47103;SDS011;32853;52.164;5.400;2023-05-10T03:18:16;63.78;;;20.50;;
47103;SDS011;32853;52.164;5.400;2023-05-10T03:20:50;68.35;;;22.40;;
47103;SDS011;32853;52.164;5.400;2023-05-10T03:26:23;65.97;;;22.75;;
47103;SDS011;32853;52.164;5.400;2023-05-10T03:28:51;61.85;;;19.02;;
47103;SDS011;32853;52.164;5.400;2023-05-10T03:31:18;70.35;;;21.52;;
47103;SDS011;32853;52.164;5.400;2023-05-10T03:33:49;76.55;;;24.70;;
47103;SDS011;32853;52.164;5.400;2023-05-10T03:36:15;70.22;;;23.52;;
47103;SDS011;32853;52.164;5.400;2023-05-10T03:38:41;85.72;;;24.10;;
47103;SDS011;32853;52.164;5.400;2023-05-10T03:41:07;84.07;;;24.92;;
47103;SDS011;32853;52.164;5.400;2023-05-10T03:43:32;80.75;;;23.63;;
47103;SDS011;32853;52.164;5.400;2023-05-10T03:45:57;77.53;;;24.00;;
47103;SDS011;32853;52.164;5.400;2023-05-10T03:48:24;81.85;;;21.75;;
47103;SDS011;32853;52.164;5.400;2023-05-10T03:50:50;76.03;;;23.33;;
47103;SDS011;32853;52.164;5.400;2023-05-10T03:53:31;79.68;;;25.60;;
47103;SDS011;32853;52.164;5.400;2023-05-10T03:58:28;67.60;;;21.63;;
47103;SDS011;32853;52.164;5.400;2023-05-10T04:01:03;83.70;;;23.08;;
47103;SDS011;32853;52.164;5.400;2023-05-10T04:03:32;81.60;;;26.00;;
47103;SDS011;32853;52.164;5.400;2023-05-10T04:06:01;86.45;;;24.20;;
47103;SDS011;32853;52.164;5.400;2023-05-10T04:08:29;88.72;;;25.77;;
47103;SDS011;32853;52.164;5.400;2023-05-10T04:11:12;99.10;;;26.20;;
47103;SDS011;32853;52.164;5.400;2023-05-10T04:16:29;85.70;;;24.48;;
47103;SDS011;32853;52.164;5.400;2023-05-10T04:18:59;64.37;;;17.80;;
47103;SDS011;32853;52.164;5.400;2023-05-10T04:21:29;73.68;;;24.00;;
47103;SDS011;32853;52.164;5.400;2023-05-10T04:23:55;73.07;;;22.63;;
47103;SDS011;32853;52.164;5.400;2023-05-10T04:26:20;82.15;;;26.00;;
47103;SDS011;32853;52.164;5.400;2023-05-10T04:28:49;76.32;;;25.55;;
47103;SDS011;32853;52.164;5.400;2023-05-10T04:31:14;79.18;;;24.23;;
47103;SDS011;32853;52.164;5.400;2023-05-10T04:33:54;88.05;;;24.02;;
47103;SDS011;32853;52.164;5.400;2023-05-10T04:36:32;87.05;;;26.30;;
47103;SDS011;32853;52.164;5.400;2023-05-10T04:39:11;96.18;;;26.17;;
47103;SDS011;32853;52.164;5.400;2023-05-10T04:41:37;94.72;;;26.52;;
47103;SDS011;32853;52.164;5.400;2023-05-10T04:44:03;82.68;;;26.15;;
47103;SDS011;32853;52.164;5.400;2023-05-10T04:46:28;88.13;;;26.15;;
47103;SDS011;32853;52.164;5.400;2023-05-10T04:48:54;91.18;;;25.25;;
47103;SDS011;32853;52.164;5.400;2023-05-10T04:51:19;85.80;;;26.23;;
47103;SDS011;32853;52.164;5.400;2023-05-10T04:53:45;80.13;;;26.83;;
47103;SDS011;32853;52.164;5.400;2023-05-10T04:56:13;76.85;;;23.48;;
47103;SDS011;32853;52.164;5.400;2023-05-10T04:58:48;74.70;;;22.05;;
47103;SDS011;32853;52.164;5.400;2023-05-10T05:01:14;73.47;;;23.58;;
47103;SDS011;32853;52.164;5.400;2023-05-10T05:03:45;78.57;;;24.35;;
47103;SDS011;32853;52.164;5.400;2023-05-10T05:06:27;81.47;;;26.80;;
47103;SDS011;32853;52.164;5.400;2023-05-10T05:09:02;73.47;;;22.83;;
47103;SDS011;32853;52.164;5.400;2023-05-10T05:11:27;86.10;;;24.05;;
47103;SDS011;32853;52.164;5.400;2023-05-10T05:13:52;82.85;;;23.33;;
47103;SDS011;32853;52.164;5.400;2023-05-10T05:16:18;79.57;;;22.90;;
47103;SDS011;32853;52.164;5.400;2023-05-10T05:18:43;72.63;;;23.08;;
47103;SDS011;32853;52.164;5.400;2023-05-10T05:21:15;78.57;;;23.70;;
47103;SDS011;32853;52.164;5.400;2023-05-10T05:23:43;82.53;;;25.52;;
47103;SDS011;32853;52.164;5.400;2023-05-10T05:26:15;98.00;;;27.38;;
47103;SDS011;32853;52.164;5.400;2023-05-10T05:28:41;87.90;;;24.95;;
47103;SDS011;32853;52.164;5.400;2023-05-10T05:31:09;89.80;;;25.67;;
47103;SDS011;32853;52.164;5.400;2023-05-10T05:33:44;82.07;;;24.08;;
47103;SDS011;32853;52.164;5.400;2023-05-10T05:39:00;67.65;;;22.42;;
47103;SDS011;32853;52.164;5.400;2023-05-10T05:41:26;80.80;;;23.48;;
47103;SDS011;32853;52.164;5.400;2023-05-10T05:43:52;70.28;;;21.95;;
47103;SDS011;32853;52.164;5.400;2023-05-10T05:46:17;84.57;;;23.67;;
47103;SDS011;32853;52.164;5.400;2023-05-10T05:48:53;70.55;;;24.52;;
47103;SDS011;32853;52.164;5.400;2023-05-10T05:51:27;66.90;;;25.83;;
47103;SDS011;32853;52.164;5.400;2023-05-10T05:54:06;72.15;;;23.77;;
47103;SDS011;32853;52.164;5.400;2023-05-10T05:56:43;70.55;;;22.50;;
47103;SDS011;32853;52.164;5.400;2023-05-10T05:59:12;63.42;;;22.92;;
47103;SDS011;32853;52.164;5.400;2023-05-10T06:01:38;64.00;;;22.42;;
47103;SDS011;32853;52.164;5.400;2023-05-10T06:04:04;64.45;;;20.17;;
47103;SDS011;32853;52.164;5.400;2023-05-10T06:06:29;60.13;;;23.40;;
47103;SDS011;32853;52.164;5.400;2023-05-10T06:08:54;70.80;;;21.23;;
47103;SDS011;32853;52.164;5.400;2023-05-10T06:11:20;52.90;;;21.50;;
47103;SDS011;32853;52.164;5.400;2023-05-10T06:13:47;60.10;;;22.55;;
47103;SDS011;32853;52.164;5.400;2023-05-10T06:16:12;55.70;;;21.45;;
47103;SDS011;32853;52.164;5.400;2023-05-10T06:18:38;50.45;;;18.45;;
47103;SDS011;32853;52.164;5.400;2023-05-10T06:21:04;46.22;;;15.88;;
47103;SDS011;32853;52.164;5.400;2023-05-10T06:26:08;53.80;;;18.88;;
47103;SDS011;32853;52.164;5.400;2023-05-10T06:28:47;51.28;;;17.42;;
47103;SDS011;32853;52.164;5.400;2023-05-10T06:33:51;43.60;;;18.02;;
47103;SDS011;32853;52.164;5.400;2023-05-10T06:38:49;37.47;;;14.27;;
47103;SDS011;32853;52.164;5.400;2023-05-10T06:41:16;43.42;;;15.73;;
47103;SDS011;32853;52.164;5.400;2023-05-10T06:43:41;36.33;;;15.60;;
47103;SDS011;32853;52.164;5.400;2023-05-10T06:46:08;33.35;;;14.20;;
47103;SDS011;32853;52.164;5.400;2023-05-10T06:48:38;38.78;;;12.98;;
47103;SDS011;32853;52.164;5.400;2023-05-10T06:51:08;28.52;;;12.30;;
47103;SDS011;32853;52.164;5.400;2023-05-10T06:53:33;29.05;;;11.77;;
47103;SDS011;32853;52.164;5.400;2023-05-10T06:55:58;32.75;;;11.65;;
47103;SDS011;32853;52.164;5.400;2023-05-10T06:58:24;16.63;;;9.68;;
47103;SDS011;32853;52.164;5.400;2023-05-10T07:00:49;21.75;;;10.18;;
47103;SDS011;32853;52.164;5.400;2023-05-10T07:03:14;22.30;;;9.90;;
47103;SDS011;32853;52.164;5.400;2023-05-10T07:05:40;20.58;;;10.23;;
47103;SDS011;32853;52.164;5.400;2023-05-10T07:08:05;22.73;;;9.10;;
47103;SDS011;32853;52.164;5.400;2023-05-10T07:10:30;22.85;;;7.85;;
47103;SDS011;32853;52.164;5.400;2023-05-10T07:12:56;21.85;;;9.60;;
47103;SDS011;32853;52.164;5.400;2023-05-10T07:15:21;24.08;;;8.90;;
47103;SDS011;32853;52.164;5.400;2023-05-10T07:17:46;18.77;;;8.63;;
47103;SDS011;32853;52.164;5.400;2023-05-10T07:20:12;22.80;;;8.05;;
47103;SDS011;32853;52.164;5.400;2023-05-10T07:22:37;22.10;;;8.82;;
47103;SDS011;32853;52.164;5.400;2023-05-10T07:25:04;16.88;;;8.65;;
47103;SDS011;32853;52.164;5.400;2023-05-10T07:27:31;19.13;;;8.15;;
47103;SDS011;32853;52.164;5.400;2023-05-10T07:29:58;26.45;;;10.43;;
47103;SDS011;32853;52.164;5.400;2023-05-10T07:32:30;21.95;;;8.48;;
47103;SDS011;32853;52.164;5.400;2023-05-10T07:37:37;21.40;;;9.18;;
47103;SDS011;32853;52.164;5.400;2023-05-10T07:40:03;24.52;;;9.40;;
47103;SDS011;32853;52.164;5.400;2023-05-10T07:42:38;28.73;;;11.25;;
47103;SDS011;32853;52.164;5.400;2023-05-10T07:45:04;22.58;;;9.38;;
47103;SDS011;32853;52.164;5.400;2023-05-10T07:47:31;21.42;;;8.60;;
47103;SDS011;32853;52.164;5.400;2023-05-10T07:49:58;17.42;;;8.63;;
47103;SDS011;32853;52.164;5.400;2023-05-10T07:54:59;31.25;;;10.60;;
47103;SDS011;32853;52.164;5.400;2023-05-10T07:57:24;23.17;;;9.88;;
47103;SDS011;32853;52.164;5.400;2023-05-10T07:59:52;22.85;;;9.63;;
47103;SDS011;32853;52.164;5.400;2023-05-10T08:02:24;14.30;;;7.43;;
47103;SDS011;32853;52.164;5.400;2023-05-10T08:04:50;15.88;;;7.70;;
47103;SDS011;32853;52.164;5.400;2023-05-10T08:07:29;23.05;;;7.68;;
47103;SDS011;32853;52.164;5.400;2023-05-10T08:10:05;17.05;;;7.32;;
47103;SDS011;32853;52.164;5.400;2023-05-10T08:12:41;15.32;;;7.15;;
47103;SDS011;32853;52.164;5.400;2023-05-10T08:15:08;18.73;;;7.78;;
47103;SDS011;32853;52.164;5.400;2023-05-10T08:17:35;15.20;;;7.43;;
47103;SDS011;32853;52.164;5.400;2023-05-10T08:23:00;19.88;;;8.45;;
47103;SDS011;32853;52.164;5.400;2023-05-10T08:25:32;13.43;;;7.35;;
47103;SDS011;32853;52.164;5.400;2023-05-10T08:28:00;17.27;;;8.45;;
47103;SDS011;32853;52.164;5.400;2023-05-10T08:30:25;15.57;;;7.63;;
47103;SDS011;32853;52.164;5.400;2023-05-10T08:32:51;22.80;;;8.98;;
47103;SDS011;32853;52.164;5.400;2023-05-10T08:35:17;16.15;;;8.68;;
47103;SDS011;32853;52.164;5.400;2023-05-10T08:37:42;20.08;;;8.32;;
47103;SDS011;32853;52.164;5.400;2023-05-10T08:40:08;19.35;;;8.57;;
47103;SDS011;32853;52.164;5.400;2023-05-10T08:42:36;22.73;;;10.75;;
47103;SDS011;32853;52.164;5.400;2023-05-10T08:45:07;19.35;;;8.57;;
47103;SDS011;32853;52.164;5.400;2023-05-10T08:47:36;18.55;;;9.50;;
47103;SDS011;32853;52.164;5.400;2023-05-10T08:50:03;18.58;;;9.02;;
47103;SDS011;32853;52.164;5.400;2023-05-10T08:52:28;16.90;;;7.80;;
47103;SDS011;32853;52.164;5.400;2023-05-10T08:54:55;17.13;;;8.52;;
47103;SDS011;32853;52.164;5.400;2023-05-10T08:57:21;15.45;;;8.45;;
47103;SDS011;32853;52.164;5.400;2023-05-10T08:59:46;20.10;;;8.38;;
47103;SDS011;32853;52.164;5.400;2023-05-10T09:02:18;16.98;;;7.68;;
47103;SDS011;32853;52.164;5.400;2023-05-10T09:07:13;13.88;;;6.60;;
47103;SDS011;32853;52.164;5.400;2023-05-10T09:09:39;16.27;;;7.82;;
47103;SDS011;32853;52.164;5.400;2023-05-10T09:12:21;16.25;;;7.72;;
47103;SDS011;32853;52.164;5.400;2023-05-10T09:14:46;12.77;;;7.90;;
47103;SDS011;32853;52.164;5.400;2023-05-10T09:17:12;15.00;;;7.30;;
47103;SDS011;32853;52.164;5.400;2023-05-10T09:19:38;8.85;;;5.20;;
47103;SDS011;32853;52.164;5.400;2023-05-10T09:22:03;8.98;;;4.32;;
47103;SDS011;32853;52.164;5.400;2023-05-10T09:24:29;10.50;;;4.32;;
47103;SDS011;32853;52.164;5.400;2023-05-10T09:26:55;6.88;;;3.67;;
47103;SDS011;32853;52.164;5.400;2023-05-10T09:38:03;5.15;;;2.15;;
47103;SDS011;32853;52.164;5.400;2023-05-10T09:40:35;6.10;;;3.25;;
47103;SDS011;32853;52.164;5.400;2023-05-10T09:43:04;3.40;;;2.00;;
47103;SDS011;32853;52.164;5.400;2023-05-10T09:45:34;4.38;;;1.58;;
47103;SDS011;32853;52.164;5.400;2023-05-10T09:48:11;4.55;;;2.20;;
47103;SDS011;32853;52.164;5.400;2023-05-10T09:50:55;4.68;;;2.78;;
47103;SDS011;32853;52.164;5.400;2023-05-10T09:53:24;6.00;;;2.35;;
47103;SDS011;32853;52.164;5.400;2023-05-10T09:55:51;4.95;;;2.63;;
47103;SDS011;32853;52.164;5.400;2023-05-10T09:58:16;6.38;;;2.38;;
47103;SDS011;32853;52.164;5.400;2023-05-10T10:00:42;3.85;;;2.20;;
47103;SDS011;32853;52.164;5.400;2023-05-10T10:03:13;3.28;;;1.95;;
47103;SDS011;32853;52.164;5.400;2023-05-10T10:05:41;7.30;;;3.15;;
47103;SDS011;32853;52.164;5.400;2023-05-10T10:08:14;6.05;;;3.65;;
47103;SDS011;32853;52.164;5.400;2023-05-10T10:10:40;6.87;;;4.60;;
47103;SDS011;32853;52.164;5.400;2023-05-10T10:13:12;7.60;;;3.85;;
47103;SDS011;32853;52.164;5.400;2023-05-10T10:15:38;8.07;;;4.78;;
47103;SDS011;32853;52.164;5.400;2023-05-10T10:18:04;15.15;;;7.03;;
47103;SDS011;32853;52.164;5.400;2023-05-10T10:20:30;6.65;;;4.35;;
47103;SDS011;32853;52.164;5.400;2023-05-10T10:23:00;11.63;;;4.47;;
47103;SDS011;32853;52.164;5.400;2023-05-10T10:25:34;9.23;;;4.65;;
47103;SDS011;32853;52.164;5.400;2023-05-10T10:30:55;8.93;;;3.72;;
47103;SDS011;32853;52.164;5.400;2023-05-10T10:36:15;7.80;;;4.35;;
47103;SDS011;32853;52.164;5.400;2023-05-10T10:38:57;9.48;;;3.15;;
47103;SDS011;32853;52.164;5.400;2023-05-10T10:41:39;8.93;;;3.55;;
47103;SDS011;32853;52.164;5.400;2023-05-10T10:49:31;6.72;;;3.60;;
47103;SDS011;32853;52.164;5.400;2023-05-10T10:52:12;8.38;;;4.55;;
47103;SDS011;32853;52.164;5.400;2023-05-10T10:54:40;7.70;;;3.63;;
47103;SDS011;32853;52.164;5.400;2023-05-10T10:57:13;9.45;;;3.20;;
47103;SDS011;32853;52.164;5.400;2023-05-10T10:59:42;8.18;;;3.55;;
47103;SDS011;32853;52.164;5.400;2023-05-10T11:05:00;9.10;;;5.00;;
47103;SDS011;32853;52.164;5.400;2023-05-10T11:07:56;4.97;;;2.90;;
47103;SDS011;32853;52.164;5.400;2023-05-10T11:10:29;6.35;;;3.67;;
47103;SDS011;32853;52.164;5.400;2023-05-10T11:13:08;6.60;;;3.55;;
47103;SDS011;32853;52.164;5.400;2023-05-10T11:15:36;6.90;;;4.05;;
47103;SDS011;32853;52.164;5.400;2023-05-10T11:21:03;5.70;;;2.78;;
47103;SDS011;32853;52.164;5.400;2023-05-10T11:26:07;7.57;;;3.65;;
47103;SDS011;32853;52.164;5.400;2023-05-10T11:28:34;9.23;;;3.80;;
47103;SDS011;32853;52.164;5.400;2023-05-10T11:31:17;8.05;;;3.53;;
47103;SDS011;32853;52.164;5.400;2023-05-10T11:39:06;7.60;;;2.75;;
47103;SDS011;32853;52.164;5.400;2023-05-10T11:41:31;5.30;;;2.65;;
47103;SDS011;32853;52.164;5.400;2023-05-10T11:43:57;4.95;;;2.70;;
47103;SDS011;32853;52.164;5.400;2023-05-10T11:46:24;4.78;;;2.75;;
47103;SDS011;32853;52.164;5.400;2023-05-10T11:48:52;7.03;;;2.70;;
47103;SDS011;32853;52.164;5.400;2023-05-10T11:54:11;6.07;;;2.97;;
47103;SDS011;32853;52.164;5.400;2023-05-10T11:59:09;7.72;;;3.13;;
47103;SDS011;32853;52.164;5.400;2023-05-10T12:04:06;8.13;;;3.20;;
47103;SDS011;32853;52.164;5.400;2023-05-10T12:06:32;5.03;;;2.45;;
47103;SDS011;32853;52.164;5.400;2023-05-10T12:09:05;7.50;;;4.25;;
47103;SDS011;32853;52.164;5.400;2023-05-10T12:11:47;7.10;;;2.65;;
47103;SDS011;32853;52.164;5.400;2023-05-10T12:14:12;6.65;;;2.00;;
47103;SDS011;32853;52.164;5.400;2023-05-10T12:16:38;6.47;;;1.98;;
47103;SDS011;32853;52.164;5.400;2023-05-10T12:19:03;4.03;;;1.67;;
47103;SDS011;32853;52.164;5.400;2023-05-10T12:21:29;8.02;;;2.30;;
47103;SDS011;32853;52.164;5.400;2023-05-10T12:23:58;4.45;;;2.42;;
47103;SDS011;32853;52.164;5.400;2023-05-10T12:26:26;5.38;;;2.63;;
47103;SDS011;32853;52.164;5.400;2023-05-10T12:28:53;5.93;;;2.63;;
47103;SDS011;32853;52.164;5.400;2023-05-10T12:31:19;3.50;;;2.13;;
47103;SDS011;32853;52.164;5.400;2023-05-10T12:33:45;8.02;;;1.98;;
47103;SDS011;32853;52.164;5.400;2023-05-10T12:36:12;3.10;;;1.55;;
47103;SDS011;32853;52.164;5.400;2023-05-10T12:38:42;7.63;;;2.50;;
47103;SDS011;32853;52.164;5.400;2023-05-10T12:41:13;4.15;;;2.00;;
47103;SDS011;32853;52.164;5.400;2023-05-10T12:43:40;9.43;;;2.00;;
47103;SDS011;32853;52.164;5.400;2023-05-10T12:46:09;3.58;;;1.55;;
47103;SDS011;32853;52.164;5.400;2023-05-10T12:48:40;1.77;;;1.00;;
47103;SDS011;32853;52.164;5.400;2023-05-10T12:51:06;3.63;;;0.98;;
47103;SDS011;32853;52.164;5.400;2023-05-10T12:53:37;4.10;;;1.10;;
47103;SDS011;32853;52.164;5.400;2023-05-10T12:56:03;3.33;;;0.90;;
47103;SDS011;32853;52.164;5.400;2023-05-10T13:01:16;3.10;;;0.80;;
47103;SDS011;32853;52.164;5.400;2023-05-10T13:03:41;3.67;;;1.17;;
47103;SDS011;32853;52.164;5.400;2023-05-10T13:06:08;3.00;;;0.73;;
47103;SDS011;32853;52.164;5.400;2023-05-10T13:08:33;2.20;;;0.73;;
47103;SDS011;32853;52.164;5.400;2023-05-10T13:10:59;1.80;;;0.70;;
47103;SDS011;32853;52.164;5.400;2023-05-10T13:13:25;1.42;;;0.90;;
47103;SDS011;32853;52.164;5.400;2023-05-10T13:15:51;3.05;;;1.00;;
47103;SDS011;32853;52.164;5.400;2023-05-10T13:18:16;2.05;;;1.10;;
47103;SDS011;32853;52.164;5.400;2023-05-10T13:20:55;1.27;;;0.85;;
47103;SDS011;32853;52.164;5.400;2023-05-10T13:23:21;1.08;;;0.63;;
47103;SDS011;32853;52.164;5.400;2023-05-10T13:25:47;1.90;;;1.10;;
47103;SDS011;32853;52.164;5.400;2023-05-10T13:28:12;6.88;;;3.30;;
47103;SDS011;32853;52.164;5.400;2023-05-10T13:30:37;7.10;;;3.90;;
47103;SDS011;32853;52.164;5.400;2023-05-10T13:33:02;7.97;;;4.20;;
47103;SDS011;32853;52.164;5.400;2023-05-10T13:35:28;7.78;;;4.13;;
47103;SDS011;32853;52.164;5.400;2023-05-10T13:40:41;10.15;;;4.18;;
47103;SDS011;32853;52.164;5.400;2023-05-10T13:43:06;11.13;;;3.65;;
47103;SDS011;32853;52.164;5.400;2023-05-10T13:45:33;10.30;;;4.47;;
47103;SDS011;32853;52.164;5.400;2023-05-10T13:48:14;11.50;;;5.30;;
47103;SDS011;32853;52.164;5.400;2023-05-10T13:50:41;13.50;;;4.72;;
47103;SDS011;32853;52.164;5.400;2023-05-10T13:53:16;10.75;;;5.10;;
47103;SDS011;32853;52.164;5.400;2023-05-10T13:55:41;11.65;;;4.85;;
47103;SDS011;32853;52.164;5.400;2023-05-10T13:58:06;8.60;;;4.28;;
47103;SDS011;32853;52.164;5.400;2023-05-10T14:03:19;10.40;;;4.15;;
47103;SDS011;32853;52.164;5.400;2023-05-10T14:05:48;10.25;;;4.43;;
47103;SDS011;32853;52.164;5.400;2023-05-10T14:08:13;10.88;;;4.13;;
47103;SDS011;32853;52.164;5.400;2023-05-10T14:10:49;13.27;;;4.80;;
47103;SDS011;32853;52.164;5.400;2023-05-10T14:13:22;7.75;;;4.05;;
47103;SDS011;32853;52.164;5.400;2023-05-10T14:15:57;9.38;;;4.20;;
47103;SDS011;32853;52.164;5.400;2023-05-10T14:18:27;8.02;;;3.75;;
47103;SDS011;32853;52.164;5.400;2023-05-10T14:20:53;8.85;;;4.53;;
47103;SDS011;32853;52.164;5.400;2023-05-10T14:23:18;7.63;;;4.13;;
47103;SDS011;32853;52.164;5.400;2023-05-10T14:25:50;11.13;;;3.95;;
47103;SDS011;32853;52.164;5.400;2023-05-10T14:28:16;13.43;;;4.57;;
47103;SDS011;32853;52.164;5.400;2023-05-10T14:30:55;15.45;;;4.60;;
47103;SDS011;32853;52.164;5.400;2023-05-10T14:33:21;10.05;;;4.35;;
47103;SDS011;32853;52.164;5.400;2023-05-10T14:35:48;10.02;;;4.30;;
47103;SDS011;32853;52.164;5.400;2023-05-10T14:38:14;10.48;;;4.35;;
47103;SDS011;32853;52.164;5.400;2023-05-10T14:40:44;10.52;;;4.60;;
47103;SDS011;32853;52.164;5.400;2023-05-10T14:43:09;10.38;;;4.13;;
47103;SDS011;32853;52.164;5.400;2023-05-10T14:45:36;8.75;;;4.57;;
47103;SDS011;32853;52.164;5.400;2023-05-10T14:48:06;8.20;;;4.82;;
47103;SDS011;32853;52.164;5.400;2023-05-10T14:50:33;11.40;;;4.25;;
47103;SDS011;32853;52.164;5.400;2023-05-10T14:53:02;10.13;;;4.03;;
47103;SDS011;32853;52.164;5.400;2023-05-10T14:55:28;11.95;;;5.25;;
47103;SDS011;32853;52.164;5.400;2023-05-10T14:58:03;13.18;;;4.80;;
47103;SDS011;32853;52.164;5.400;2023-05-10T15:00:28;15.68;;;4.18;;
47103;SDS011;32853;52.164;5.400;2023-05-10T15:05:31;8.63;;;4.43;;
47103;SDS011;32853;52.164;5.400;2023-05-10T15:10:45;9.95;;;4.78;;
47103;SDS011;32853;52.164;5.400;2023-05-10T15:13:11;9.48;;;4.47;;
47103;SDS011;32853;52.164;5.400;2023-05-10T15:15:42;12.63;;;4.38;;
47103;SDS011;32853;52.164;5.400;2023-05-10T15:18:11;10.38;;;5.07;;
47103;SDS011;32853;52.164;5.400;2023-05-10T15:20:36;12.48;;;4.65;;
47103;SDS011;32853;52.164;5.400;2023-05-10T15:23:02;38.67;;;19.35;;
47103;SDS011;32853;52.164;5.400;2023-05-10T15:25:27;12.70;;;7.55;;
47103;SDS011;32853;52.164;5.400;2023-05-10T15:28:07;8.02;;;4.80;;
47103;SDS011;32853;52.164;5.400;2023-05-10T15:30:32;11.48;;;5.43;;
47103;SDS011;32853;52.164;5.400;2023-05-10T15:32:57;10.68;;;5.13;;
47103;SDS011;32853;52.164;5.400;2023-05-10T15:35:26;10.02;;;4.75;;
47103;SDS011;32853;52.164;5.400;2023-05-10T15:37:53;11.27;;;4.07;;
47103;SDS011;32853;52.164;5.400;2023-05-10T15:40:18;8.85;;;5.07;;
47103;SDS011;32853;52.164;5.400;2023-05-10T15:45:36;17.05;;;5.07;;
47103;SDS011;32853;52.164;5.400;2023-05-10T15:51:36;7.53;;;4.07;;
47103;SDS011;32853;52.164;5.400;2023-05-10T15:54:02;7.63;;;3.75;;
47103;SDS011;32853;52.164;5.400;2023-05-10T15:56:28;7.90;;;3.83;;
47103;SDS011;32853;52.164;5.400;2023-05-10T15:59:06;9.95;;;4.05;;
47103;SDS011;32853;52.164;5.400;2023-05-10T16:04:41;12.23;;;4.35;;
47103;SDS011;32853;52.164;5.400;2023-05-10T16:07:06;9.77;;;4.25;;
47103;SDS011;32853;52.164;5.400;2023-05-10T16:09:34;12.13;;;4.68;;
47103;SDS011;32853;52.164;5.400;2023-05-10T16:12:08;8.00;;;3.80;;
47103;SDS011;32853;52.164;5.400;2023-05-10T16:14:34;7.55;;;3.85;;
47103;SDS011;32853;52.164;5.400;2023-05-10T16:16:59;9.85;;;4.68;;
47103;SDS011;32853;52.164;5.400;2023-05-10T16:22:17;8.40;;;3.83;;
47103;SDS011;32853;52.164;5.400;2023-05-10T16:24:42;8.00;;;4.32;;
47103;SDS011;32853;52.164;5.400;2023-05-10T16:27:07;9.15;;;4.38;;
47103;SDS011;32853;52.164;5.400;2023-05-10T16:29:33;13.40;;;4.68;;
47103;SDS011;32853;52.164;5.400;2023-05-10T16:31:58;7.03;;;4.13;;
47103;SDS011;32853;52.164;5.400;2023-05-10T16:34:24;12.30;;;4.28;;
47103;SDS011;32853;52.164;5.400;2023-05-10T16:36:55;10.13;;;3.95;;
47103;SDS011;32853;52.164;5.400;2023-05-10T16:39:21;7.80;;;3.25;;
47103;SDS011;32853;52.164;5.400;2023-05-10T16:41:46;8.20;;;3.88;;
47103;SDS011;32853;52.164;5.400;2023-05-10T16:44:12;8.70;;;4.53;;
47103;SDS011;32853;52.164;5.400;2023-05-10T16:46:37;11.13;;;3.95;;
47103;SDS011;32853;52.164;5.400;2023-05-10T16:49:02;8.38;;;3.90;;
47103;SDS011;32853;52.164;5.400;2023-05-10T16:51:28;5.63;;;2.88;;
47103;SDS011;32853;52.164;5.400;2023-05-10T16:53:53;8.68;;;3.13;;
47103;SDS011;32853;52.164;5.400;2023-05-10T16:56:19;6.90;;;3.08;;
47103;SDS011;32853;52.164;5.400;2023-05-10T16:58:46;4.95;;;2.72;;